Time;durP1;ratioP1;P1;durP2;ratioP2;P2;SDS_P1;SDS_P2;PMS_P1;PMS_P2;Temp;Humidity;BMP_temperature;BMP_pressure;BME280_temperature;BME280_humidity;BME280_pressure;Samples;Min_cycle;Max_cycle;Signal;HPM_P1;HPM_P2
2023/05/18 03:17:16;;;;;;;5.47;1.60;;;7.90;90.80;;;;;;6202928;22;87979;-76
2023/05/18 03:19:42;;;;;;;5.15;1.10;;;7.90;90.80;;;;;;6248938;22;89254;-75
2023/05/18 03:22:07;;;;;;;4.18;1.10;;;7.90;91.00;;;;;;6250010;22;87305;-75
2023/05/18 03:24:38;;;;;;;4.97;1.20;;;7.90;91.00;;;;;;6279043;22;88518;-75
2023/05/18 03:27:07;;;;;;;3.90;1.23;;;7.90;90.90;;;;;;6279805;22;88538;-75
2023/05/18 03:29:33;;;;;;;6.65;1.25;;;7.80;90.90;;;;;;6281003;22;87301;-74
2023/05/18 03:31:59;;;;;;;7.00;1.80;;;7.80;90.90;;;;;;6280681;22;87022;-75
2023/05/18 03:34:24;;;;;;;4.85;1.25;;;7.90;90.90;;;;;;6279605;22;87413;-74
2023/05/18 03:36:51;;;;;;;3.80;1.25;;;7.90;91.10;;;;;;6279816;22;87829;-73
2023/05/18 03:39:17;;;;;;;4.82;1.60;;;7.90;91.30;;;;;;6282178;22;87304;-75
2023/05/18 03:41:42;;;;;;;5.03;1.20;;;7.90;91.60;;;;;;6283452;22;86252;-74
2023/05/18 03:44:08;;;;;;;5.45;1.40;;;7.80;91.60;;;;;;6281563;22;88635;-74
2023/05/18 03:46:34;;;;;;;4.22;1.33;;;7.90;91.60;;;;;;6282360;22;88066;-75
2023/05/18 03:49:00;;;;;;;4.40;1.20;;;7.90;91.60;;;;;;6281238;22;88174;-74
2023/05/18 03:51:27;;;;;;;6.35;1.58;;;7.90;91.70;;;;;;6281738;22;87841;-74
2023/05/18 03:53:53;;;;;;;7.00;1.35;;;7.90;91.90;;;;;;6281834;22;88368;-74
2023/05/18 03:56:19;;;;;;;6.10;1.60;;;8.00;92.00;;;;;;6281079;22;87098;-74
2023/05/18 03:58:45;;;;;;;5.95;1.58;;;8.00;92.00;;;;;;6282535;22;86999;-74
2023/05/18 04:01:11;;;;;;;5.18;1.35;;;8.10;91.70;;;;;;6280984;22;87381;-74
2023/05/18 04:03:36;;;;;;;5.03;1.60;;;8.00;91.40;;;;;;6280385;22;88597;-74
2023/05/18 04:06:02;;;;;;;4.78;1.40;;;8.00;91.40;;;;;;6281757;22;87217;-75
2023/05/18 04:08:29;;;;;;;5.25;1.25;;;8.10;91.50;;;;;;6281501;22;87278;-75
2023/05/18 04:10:55;;;;;;;3.17;1.08;;;8.20;91.20;;;;;;6281946;22;87433;-75
2023/05/18 04:13:20;;;;;;;4.18;1.20;;;8.50;91.00;;;;;;6280349;22;88185;-76
2023/05/18 04:15:46;;;;;;;4.50;1.17;;;9.00;90.20;;;;;;6281407;22;88429;-76
2023/05/18 04:18:13;;;;;;;4.88;1.63;;;9.70;88.70;;;;;;6252876;22;86959;-76
2023/05/18 04:20:40;;;;;;;4.30;1.48;;;10.30;85.70;;;;;;6250360;22;87420;-74
2023/05/18 04:23:08;;;;;;;4.93;1.58;;;10.60;84.30;;;;;;6249988;22;88578;-75
2023/05/18 04:25:34;;;;;;;4.97;1.63;;;11.20;82.50;;;;;;6249614;22;87693;-76
2023/05/18 04:28:00;;;;;;;4.55;1.63;;;11.50;80.30;;;;;;6250824;22;87367;-76
2023/05/18 04:30:28;;;;;;;5.68;1.30;;;11.80;78.40;;;;;;6250816;22;87068;-75
2023/05/18 04:32:56;;;;;;;3.80;1.48;;;12.40;77.60;;;;;;6249839;22;88440;-74
2023/05/18 04:35:24;;;;;;;3.38;0.95;;;12.90;75.10;;;;;;6250325;22;87794;-75
2023/05/18 04:37:50;;;;;;;6.40;1.45;;;13.30;74.00;;;;;;6249452;22;88293;-76
2023/05/18 04:40:16;;;;;;;4.10;1.17;;;14.00;73.00;;;;;;6249456;22;87298;-75
2023/05/18 04:42:46;;;;;;;3.83;1.02;;;14.80;70.30;;;;;;6249855;22;88235;-75
2023/05/18 04:45:16;;;;;;;4.13;1.25;;;15.40;69.30;;;;;;6248498;22;87239;-77
2023/05/18 04:47:45;;;;;;;4.75;1.23;;;15.80;66.40;;;;;;6249159;22;87540;-77
2023/05/18 04:50:17;;;;;;;5.03;1.42;;;16.30;65.70;;;;;;6249098;22;87666;-77
2023/05/18 04:52:47;;;;;;;4.13;1.42;;;16.70;64.80;;;;;;6246717;22;88229;-76
2023/05/18 04:55:21;;;;;;;5.00;1.50;;;16.70;62.70;;;;;;6246035;22;88404;-77
2023/05/18 04:57:49;;;;;;;4.22;1.70;;;16.70;63.90;;;;;;6249269;22;87456;-76
2023/05/18 05:00:15;;;;;;;4.93;2.05;;;16.90;63.80;;;;;;6249958;22;87500;-77
2023/05/18 05:02:41;;;;;;;5.22;1.50;;;17.60;60.70;;;;;;6247384;22;89064;-77
2023/05/18 05:05:07;;;;;;;3.92;1.30;;;18.20;60.00;;;;;;6247729;22;88776;-76
2023/05/18 05:07:33;;;;;;;5.22;1.60;;;17.70;58.40;;;;;;6248910;22;87344;-79
2023/05/18 05:09:58;;;;;;;4.20;1.20;;;17.90;59.60;;;;;;6249648;22;87559;-78
2023/05/18 05:12:24;;;;;;;4.07;1.40;;;18.70;57.90;;;;;;6247477;22;88270;-78
2023/05/18 05:14:50;;;;;;;3.50;1.40;;;19.30;56.10;;;;;;6249880;22;87232;-78
2023/05/18 05:17:16;;;;;;;5.13;1.40;;;19.60;55.60;;;;;;6249057;22;87304;-77
2023/05/18 05:19:41;;;;;;;5.93;1.48;;;19.30;53.80;;;;;;6246996;22;86600;-77
2023/05/18 05:22:08;;;;;;;4.03;1.58;;;19.20;55.20;;;;;;6249726;22;88639;-76
2023/05/18 05:24:34;;;;;;;4.72;1.70;;;18.70;55.80;;;;;;6247911;22;87259;-77
2023/05/18 05:27:00;;;;;;;4.88;1.63;;;18.70;56.00;;;;;;6218477;22;89054;-78
2023/05/18 05:29:26;;;;;;;4.28;1.58;;;19.00;56.10;;;;;;6249089;22;87588;-79
2023/05/18 05:31:52;;;;;;;5.25;1.73;;;19.30;54.80;;;;;;6249496;22;87567;-78
2023/05/18 05:34:18;;;;;;;6.47;2.13;;;19.70;53.30;;;;;;6248898;22;88724;-79
2023/05/18 05:36:43;;;;;;;6.70;1.95;;;19.90;53.30;;;;;;6248618;22;87273;-79
2023/05/18 05:39:09;;;;;;;8.35;2.05;;;20.00;54.00;;;;;;6247516;22;87440;-79
2023/05/18 05:41:35;;;;;;;5.28;2.00;;;20.30;53.30;;;;;;6248590;22;87303;-80
2023/05/18 05:44:00;;;;;;;5.93;2.10;;;20.80;50.50;;;;;;6249603;22;87171;-79
2023/05/18 05:46:26;;;;;;;6.65;1.60;;;21.10;51.00;;;;;;6249477;22;87226;-79
2023/05/18 05:48:52;;;;;;;3.97;1.77;;;21.90;49.90;;;;;;6250183;22;87773;-78
2023/05/18 05:51:17;;;;;;;5.68;2.65;;;22.00;48.20;;;;;;6251264;22;89074;-77
2023/05/18 05:53:46;;;;;;;7.55;1.98;;;22.30;48.60;;;;;;6249674;22;88159;-78
2023/05/18 05:56:12;;;;;;;4.68;1.50;;;22.70;47.50;;;;;;6250136;22;87299;-76
2023/05/18 05:58:37;;;;;;;6.60;2.17;;;23.60;46.10;;;;;;6250717;22;87320;-76
2023/05/18 06:01:03;;;;;;;4.28;1.95;;;24.50;45.50;;;;;;6249601;22;89172;-78
2023/05/18 06:03:30;;;;;;;4.72;2.35;;;24.70;43.90;;;;;;6249780;22;88587;-76
2023/05/18 06:05:56;;;;;;;4.57;2.10;;;25.60;44.50;;;;;;6249362;22;87286;-78
2023/05/18 06:08:23;;;;;;;4.50;2.55;;;26.20;43.00;;;;;;6249178;22;86563;-78
2023/05/18 06:10:48;;;;;;;3.80;2.05;;;26.80;41.50;;;;;;6246894;22;88784;-76
2023/05/18 06:13:15;;;;;;;5.07;2.40;;;27.30;42.20;;;;;;6249376;22;87289;-79
2023/05/18 06:15:40;;;;;;;5.82;2.25;;;27.40;41.20;;;;;;6249565;22;88228;-77
2023/05/18 06:18:06;;;;;;;5.97;3.45;;;27.60;41.60;;;;;;6248419;22;87024;-78
2023/05/18 06:20:32;;;;;;;6.57;2.28;;;27.90;40.10;;;;;;6249383;22;88164;-78
2023/05/18 06:22:57;;;;;;;6.60;2.75;;;28.10;40.80;;;;;;6248559;22;87346;-78
2023/05/18 06:25:23;;;;;;;5.70;2.45;;;28.70;40.00;;;;;;6249335;22;87142;-82
2023/05/18 06:27:49;;;;;;;5.60;3.50;;;28.70;39.40;;;;;;6248378;22;87272;-82
2023/05/18 06:30:15;;;;;;;6.43;2.78;;;28.40;39.70;;;;;;6248478;22;88372;-80
2023/05/18 06:32:41;;;;;;;5.65;2.65;;;28.40;40.80;;;;;;6250037;22;87774;-73
2023/05/18 06:35:07;;;;;;;6.95;2.10;;;28.70;40.40;;;;;;6248421;22;87444;-77
2023/05/18 06:37:33;;;;;;;4.90;2.10;;;29.20;39.40;;;;;;6248472;22;89277;-79
2023/05/18 06:39:58;;;;;;;5.60;2.63;;;29.50;38.50;;;;;;6246891;22;88551;-79
2023/05/18 06:42:24;;;;;;;3.83;2.33;;;29.50;39.30;;;;;;6222199;22;89763;-79
2023/05/18 06:44:50;;;;;;;8.13;2.78;;;29.40;38.50;;;;;;6247323;22;88538;-79
2023/05/18 06:47:16;;;;;;;6.57;2.65;;;29.50;38.80;;;;;;6249452;22;87527;-77
2023/05/18 06:49:42;;;;;;;4.80;2.55;;;29.60;38.30;;;;;;6248747;22;89049;-77
2023/05/18 06:52:08;;;;;;;5.43;2.65;;;29.00;37.10;;;;;;6248818;22;87383;-77
2023/05/18 06:54:35;;;;;;;5.75;2.97;;;28.90;38.10;;;;;;6249104;22;87436;-79
2023/05/18 06:57:01;;;;;;;5.95;3.42;;;29.30;38.00;;;;;;6248703;22;86365;-79
2023/05/18 06:59:26;;;;;;;4.78;2.53;;;29.70;38.60;;;;;;6248242;22;88508;-77
2023/05/18 07:01:52;;;;;;;5.75;2.92;;;29.40;37.80;;;;;;6248456;22;87710;-79
2023/05/18 07:04:20;;;;;;;4.57;2.15;;;30.10;37.60;;;;;;6221675;22;88469;-78
2023/05/18 07:06:46;;;;;;;5.47;2.67;;;30.20;36.40;;;;;;6249661;22;87043;-79
2023/05/18 07:09:12;;;;;;;5.07;2.90;;;30.10;36.50;;;;;;6248461;22;88544;-79
2023/05/18 07:11:39;;;;;;;5.70;2.17;;;30.10;36.40;;;;;;6248627;22;87179;-78
2023/05/18 07:14:05;;;;;;;8.60;3.35;;;30.50;36.10;;;;;;6248668;22;87573;-79
2023/05/18 07:16:31;;;;;;;7.80;2.63;;;30.90;35.50;;;;;;6248457;22;87519;-78
2023/05/18 07:19:00;;;;;;;7.15;4.20;;;31.90;36.10;;;;;;6249018;22;87512;-79
2023/05/18 07:21:25;;;;;;;5.90;2.67;;;32.90;35.20;;;;;;6249021;22;88715;-79
2023/05/18 07:23:51;;;;;;;5.03;3.03;;;33.10;33.80;;;;;;6248138;22;88026;-78
2023/05/18 07:26:18;;;;;;;5.85;2.70;;;33.10;33.80;;;;;;6247293;22;87438;-76
2023/05/18 07:28:44;;;;;;;4.88;2.60;;;33.70;33.20;;;;;;6247726;22;88946;-76
2023/05/18 07:31:10;;;;;;;3.78;2.83;;;33.10;33.30;;;;;;6247234;22;88827;-79
2023/05/18 07:33:35;;;;;;;6.43;2.97;;;32.80;33.30;;;;;;6247986;22;87180;-77
2023/05/18 07:36:01;;;;;;;6.32;3.42;;;32.80;34.00;;;;;;6247880;22;87215;-74
2023/05/18 07:38:27;;;;;;;5.70;2.60;;;33.20;34.30;;;;;;6248051;22;87568;-76
2023/05/18 07:40:52;;;;;;;4.85;3.40;;;33.30;34.40;;;;;;6246967;22;87544;-79
2023/05/18 07:43:18;;;;;;;4.90;2.85;;;34.10;33.60;;;;;;6248018;22;87619;-77
2023/05/18 07:45:44;;;;;;;4.65;2.35;;;34.60;33.40;;;;;;6249278;22;86661;-75
2023/05/18 07:48:09;;;;;;;4.03;2.28;;;34.60;32.30;;;;;;6248248;22;88778;-76
2023/05/18 07:50:35;;;;;;;4.60;3.05;;;34.30;32.00;;;;;;6246978;22;87592;-75
2023/05/18 07:53:01;;;;;;;5.47;3.50;;;34.90;33.20;;;;;;6248558;22;88357;-75
2023/05/18 07:55:27;;;;;;;6.38;5.13;;;34.70;32.50;;;;;;6247299;22;87338;-77
2023/05/18 07:57:52;;;;;;;5.38;2.95;;;35.10;32.40;;;;;;6248166;22;88173;-77
2023/05/18 08:00:19;;;;;;;4.82;2.95;;;35.10;32.20;;;;;;6241739;22;87776;-76
2023/05/18 08:02:45;;;;;;;4.40;2.78;;;35.00;32.60;;;;;;6244050;22;87462;-77
2023/05/18 08:05:11;;;;;;;3.95;2.38;;;35.80;32.70;;;;;;6246054;22;87473;-76
2023/05/18 08:07:36;;;;;;;5.50;3.05;;;35.80;31.20;;;;;;6242342;22;87644;-77
2023/05/18 08:10:03;;;;;;;6.20;3.03;;;36.10;32.00;;;;;;6244053;22;87208;-77
2023/05/18 08:12:28;;;;;;;3.78;2.97;;;36.10;30.20;;;;;;6246738;22;87509;-81
2023/05/18 08:14:55;;;;;;;6.10;5.10;;;36.80;31.40;;;;;;6243817;22;87773;-78
2023/05/18 08:17:20;;;;;;;8.88;2.97;;;35.90;31.10;;;;;;6242934;22;88842;-77
2023/05/18 08:19:47;;;;;;;5.63;3.15;;;36.60;30.80;;;;;;6245600;22;87582;-80
2023/05/18 08:22:14;;;;;;;4.13;2.60;;;37.00;31.60;;;;;;6245895;22;87006;-78
2023/05/18 08:24:40;;;;;;;4.65;2.67;;;36.80;30.10;;;;;;6243415;22;87284;-78
2023/05/18 08:27:08;;;;;;;4.72;2.40;;;36.50;30.90;;;;;;6244056;22;87950;-78
2023/05/18 08:29:34;;;;;;;4.32;2.85;;;36.60;31.00;;;;;;6248359;22;88415;-78
2023/05/18 08:32:00;;;;;;;5.03;4.05;;;37.30;30.60;;;;;;6248814;22;87407;-77
2023/05/18 08:34:25;;;;;;;5.25;3.45;;;37.60;30.00;;;;;;6247427;22;86613;-78
2023/05/18 08:36:51;;;;;;;3.15;2.17;;;37.70;29.50;;;;;;6245015;22;87524;-78
2023/05/18 08:39:17;;;;;;;4.47;3.30;;;37.60;30.00;;;;;;6245269;22;88231;-78
2023/05/18 08:42:14;;;;;;;4.32;2.50;;;37.10;30.40;;;;;;6248501;22;88252;-78
2023/05/18 08:44:47;;;;;;;4.53;3.53;;;38.10;29.90;;;;;;6247151;22;87091;-79
2023/05/18 08:47:14;;;;;;;5.10;3.85;;;38.60;30.00;;;;;;6246827;22;87901;-78
2023/05/18 08:49:41;;;;;;;5.70;3.47;;;38.50;30.50;;;;;;6247669;22;88097;-78
2023/05/18 08:52:08;;;;;;;5.65;4.03;;;39.40;31.30;;;;;;6247587;22;87309;-79
2023/05/18 08:54:36;;;;;;;7.22;4.03;;;39.50;29.70;;;;;;6249071;22;87413;-78
2023/05/18 08:57:06;;;;;;;5.70;3.45;;;39.90;30.00;;;;;;6247667;22;87323;-78
2023/05/18 08:59:35;;;;;;;5.13;3.40;;;39.60;29.60;;;;;;6249549;22;87981;-78
2023/05/18 09:02:01;;;;;;;6.85;5.10;;;39.30;29.90;;;;;;6248179;22;87357;-78
2023/05/18 09:04:27;;;;;;;5.47;3.60;;;39.40;29.30;;;;;;6247734;22;87609;-79
2023/05/18 09:06:53;;;;;;;5.53;3.90;;;39.70;29.90;;;;;;6246409;22;88931;-78
2023/05/18 09:09:20;;;;;;;6.28;4.68;;;39.10;29.30;;;;;;6249402;22;88853;-78
2023/05/18 09:11:47;;;;;;;5.40;3.83;;;38.50;29.70;;;;;;6249602;22;87246;-77
2023/05/18 09:14:13;;;;;;;5.75;3.35;;;38.70;29.90;;;;;;6247917;22;87431;-77
2023/05/18 09:16:38;;;;;;;7.10;4.60;;;37.30;29.10;;;;;;6247968;22;87455;-77
2023/05/18 09:19:04;;;;;;;4.55;3.40;;;37.60;29.40;;;;;;6247598;22;88224;-77
2023/05/18 09:21:31;;;;;;;5.53;3.90;;;37.80;29.70;;;;;;6249253;22;87509;-77
2023/05/18 09:23:58;;;;;;;5.95;4.05;;;37.90;29.40;;;;;;6247858;22;86692;-77
2023/05/18 09:26:24;;;;;;;7.10;3.80;;;37.80;29.00;;;;;;6247756;22;88049;-77
2023/05/18 09:28:53;;;;;;;5.95;3.15;;;38.10;30.40;;;;;;6219300;22;90083;-77
2023/05/18 09:31:23;;;;;;;5.50;4.22;;;38.10;28.40;;;;;;6247194;22;88279;-77
2023/05/18 09:33:50;;;;;;;4.60;3.58;;;37.90;29.10;;;;;;6248667;22;87775;-77
2023/05/18 09:36:16;;;;;;;6.75;4.38;;;38.20;30.40;;;;;;6248673;22;87500;-77
2023/05/18 09:38:45;;;;;;;6.57;3.40;;;38.70;29.70;;;;;;6249665;22;87240;-76
2023/05/18 09:41:13;;;;;;;5.88;3.45;;;38.90;30.00;;;;;;6247033;22;87303;-78
2023/05/18 09:43:39;;;;;;;5.78;3.25;;;38.50;29.40;;;;;;6245877;22;87492;-77
2023/05/18 09:46:09;;;;;;;9.07;3.53;;;38.20;29.90;;;;;;6245445;22;88900;-76
2023/05/18 09:48:36;;;;;;;4.78;3.85;;;38.50;30.10;;;;;;6248888;22;88223;-77
2023/05/18 09:51:06;;;;;;;6.25;3.67;;;38.40;29.90;;;;;;6249245;22;87387;-76
2023/05/18 09:53:36;;;;;;;5.93;3.08;;;38.10;28.90;;;;;;6248789;22;87323;-77
2023/05/18 09:56:10;;;;;;;6.95;5.05;;;38.00;30.20;;;;;;6247731;22;89683;-76
2023/05/18 09:58:37;;;;;;;5.43;2.92;;;37.10;29.80;;;;;;6248901;22;89203;-76
2023/05/18 10:01:03;;;;;;;6.32;3.53;;;35.40;29.70;;;;;;6249623;22;87298;-76
2023/05/18 10:03:37;;;;;;;5.85;3.45;;;34.50;31.30;;;;;;6248868;22;87241;-77
2023/05/18 10:06:06;;;;;;;5.55;3.03;;;34.00;32.60;;;;;;6249461;22;88079;-76
2023/05/18 10:08:33;;;;;;;5.18;2.78;;;33.00;33.30;;;;;;6248788;22;87242;-75
2023/05/18 10:11:00;;;;;;;5.75;2.75;;;31.80;33.10;;;;;;6248216;22;87376;-76
2023/05/18 10:13:30;;;;;;;3.80;2.10;;;31.50;36.30;;;;;;6249013;22;86666;-76
2023/05/18 10:16:06;;;;;;;4.70;1.70;;;30.50;35.50;;;;;;6248404;22;88644;-76
2023/05/18 10:18:36;;;;;;;3.97;1.75;;;29.80;37.20;;;;;;6215629;22;87277;-75
2023/05/18 10:21:04;;;;;;;5.20;1.75;;;29.10;38.00;;;;;;6217318;22;88306;-77
2023/05/18 10:23:32;;;;;;;4.82;1.85;;;28.90;39.70;;;;;;6218301;22;87422;-75
2023/05/18 10:25:58;;;;;;;7.10;1.58;;;28.90;39.30;;;;;;6214847;22;88455;-75
2023/05/18 10:28:31;;;;;;;3.20;1.42;;;28.80;40.30;;;;;;6216163;22;87356;-76
2023/05/18 10:30:59;;;;;;;3.53;1.73;;;28.60;39.50;;;;;;6217960;22;87725;-76
2023/05/18 10:33:27;;;;;;;4.25;1.98;;;28.60;38.50;;;;;;6216616;22;87352;-76
2023/05/18 10:35:54;;;;;;;7.68;2.75;;;28.10;37.70;;;;;;6218772;22;88099;-76
2023/05/18 10:38:22;;;;;;;4.50;1.23;;;27.40;40.10;;;;;;6218709;22;87206;-76
2023/05/18 10:40:50;;;;;;;3.55;1.55;;;27.30;40.20;;;;;;6218558;22;87239;-76
2023/05/18 10:43:22;;;;;;;3.38;1.42;;;27.30;39.80;;;;;;6218125;22;87376;-76
2023/05/18 10:46:00;;;;;;;5.07;1.67;;;27.00;39.70;;;;;;6217895;22;88230;-77
2023/05/18 10:48:28;;;;;;;3.72;1.90;;;26.80;39.70;;;;;;6216081;22;88600;-76
2023/05/18 10:50:56;;;;;;;4.28;1.45;;;26.20;40.20;;;;;;6218645;22;87267;-77
2023/05/18 10:53:25;;;;;;;4.28;1.42;;;26.20;39.70;;;;;;6218704;22;87342;-77
2023/05/18 10:55:52;;;;;;;3.53;1.30;;;26.20;42.50;;;;;;6218049;22;87947;-76
2023/05/18 10:58:20;;;;;;;3.65;1.42;;;26.00;40.00;;;;;;6217364;22;87794;-76
2023/05/18 11:00:50;;;;;;;2.47;1.23;;;25.70;40.70;;;;;;6219395;22;87314;-76
2023/05/18 11:03:17;;;;;;;2.97;1.08;;;25.60;39.50;;;;;;6218864;22;86621;-76
2023/05/18 11:06:02;;;;;;;5.03;1.75;;;25.50;39.60;;;;;;6218247;22;88085;-76
2023/05/18 11:08:28;;;;;;;5.43;1.75;;;25.40;42.40;;;;;;6216544;22;87547;-75
2023/05/18 11:11:02;;;;;;;3.00;1.13;;;25.20;43.20;;;;;;6216149;22;88256;-76
2023/05/18 11:13:31;;;;;;;4.22;1.23;;;25.10;42.90;;;;;;6218344;22;87395;-76
2023/05/18 11:15:59;;;;;;;4.70;1.02;;;25.20;44.50;;;;;;6216436;22;88121;-76
2023/05/18 11:18:45;;;;;;;3.20;1.27;;;24.80;42.50;;;;;;6242761;22;87897;-76
2023/05/18 11:21:23;;;;;;;3.28;1.02;;;24.30;42.30;;;;;;6246155;22;87189;-76
2023/05/18 11:24:16;;;;;;;3.05;1.08;;;24.20;43.70;;;;;;6247898;22;87433;-75
2023/05/18 11:26:49;;;;;;;4.68;1.27;;;24.20;45.70;;;;;;6245654;22;87583;-76
2023/05/18 11:29:34;;;;;;;4.78;1.08;;;24.30;44.00;;;;;;6249610;22;87582;-76
2023/05/18 11:32:00;;;;;;;4.63;1.70;;;24.40;44.60;;;;;;6248221;22;87657;-76
2023/05/18 11:34:48;;;;;;;6.30;1.40;;;24.40;43.60;;;;;;6248889;22;88309;-76
2023/05/18 11:37:37;;;;;;;2.78;1.48;;;24.20;44.30;;;;;;6247441;22;89396;-76
2023/05/18 11:40:04;;;;;;;;;;;24.00;45.00;;;;;;6245995;22;89162;-76
2023/05/18 11:42:33;;;;;;;2.83;0.98;;;24.20;43.80;;;;;;6250551;22;87356;-76
2023/05/18 11:45:10;;;;;;;12.60;2.80;;;24.10;44.40;;;;;;6248877;22;87157;-76
2023/05/18 11:47:38;;;;;;;4.00;0.95;;;23.90;45.00;;;;;;6248538;22;88113;-76
2023/05/18 11:50:09;;;;;;;3.22;0.90;;;23.90;45.00;;;;;;6244424;22;88073;-76
2023/05/18 11:52:46;;;;;;;2.80;0.80;;;23.90;45.80;;;;;;6245693;22;88020;-76
2023/05/18 11:55:14;;;;;;;2.38;0.77;;;23.30;44.90;;;;;;6248040;22;86194;-75
2023/05/18 11:57:44;;;;;;;1.92;0.63;;;23.10;45.40;;;;;;6237194;22;88417;-76
2023/05/18 12:00:10;;;;;;;1.55;0.40;;;23.00;45.10;;;;;;6241079;22;87690;-76
2023/05/18 12:02:37;;;;;;;2.17;0.50;;;22.70;43.60;;;;;;6248009;22;88583;-76
2023/05/18 12:05:07;;;;;;;3.15;0.70;;;22.20;44.50;;;;;;6244958;22;87063;-75
2023/05/18 12:07:34;;;;;;;2.78;0.68;;;21.70;45.40;;;;;;6248244;22;87023;-76
2023/05/18 12:10:01;;;;;;;4.15;0.63;;;21.30;45.70;;;;;;6246961;22;87846;-75
2023/05/18 12:12:27;;;;;;;2.40;0.57;;;21.40;47.00;;;;;;6247544;22;87263;-76
2023/05/18 12:14:58;;;;;;;2.35;0.60;;;21.30;47.70;;;;;;6248037;22;87823;-75
2023/05/18 12:17:44;;;;;;;1.75;0.45;;;21.30;47.30;;;;;;6247814;22;87646;-75
2023/05/18 12:20:13;;;;;;;2.33;0.70;;;21.10;47.50;;;;;;6248021;22;87243;-75
2023/05/18 12:22:44;;;;;;;3.72;0.60;;;21.00;47.30;;;;;;6247221;22;87359;-75
2023/05/18 12:25:10;;;;;;;3.17;0.50;;;20.90;47.50;;;;;;6247208;22;87222;-75
2023/05/18 12:27:40;;;;;;;2.78;0.65;;;20.70;47.10;;;;;;6245918;22;89014;-75
2023/05/18 12:30:15;;;;;;;2.35;0.50;;;20.70;48.60;;;;;;6248739;22;89718;-75
2023/05/18 12:32:46;;;;;;;2.53;1.00;;;20.40;48.50;;;;;;6248701;22;87634;-75
2023/05/18 12:35:12;;;;;;;2.78;0.47;;;20.40;49.60;;;;;;6248057;22;87507;-75
2023/05/18 12:37:44;;;;;;;4.70;0.80;;;20.30;48.30;;;;;;6248743;22;87987;-75
2023/05/18 12:40:15;;;;;;;2.60;0.40;;;20.40;49.30;;;;;;6246804;22;87781;-75
2023/05/18 12:43:00;;;;;;;2.55;0.47;;;20.40;48.00;;;;;;6247782;22;88323;-75
2023/05/18 12:45:27;;;;;;;2.25;0.40;;;20.60;49.00;;;;;;6247943;22;86282;-75
2023/05/18 12:47:53;;;;;;;2.63;0.70;;;20.50;48.20;;;;;;6246446;22;88016;-75
2023/05/18 12:50:21;;;;;;;2.13;0.60;;;20.60;49.40;;;;;;6245193;22;87249;-74
2023/05/18 12:52:48;;;;;;;2.63;0.60;;;20.70;49.70;;;;;;6240878;22;88404;-74
2023/05/18 12:55:21;;;;;;;2.10;0.47;;;20.80;48.70;;;;;;6245938;22;87537;-74
2023/05/18 12:58:15;;;;;;;1.38;0.52;;;21.00;48.30;;;;;;6247377;22;88069;-74
2023/05/18 13:00:43;;;;;;;2.30;0.65;;;21.10;48.80;;;;;;6242042;22;88239;-75
2023/05/18 13:03:18;;;;;;;4.28;0.90;;;21.20;48.00;;;;;;6220493;22;87423;-75
2023/05/18 13:06:03;;;;;;;2.30;0.50;;;21.20;48.10;;;;;;6243280;22;88312;-73
2023/05/18 13:08:31;;;;;;;4.45;1.20;;;21.30;47.60;;;;;;6218554;22;90324;-74
2023/05/18 13:11:01;;;;;;;3.38;1.20;;;21.30;48.60;;;;;;6243796;22;88730;-75
2023/05/18 13:13:27;;;;;;;4.55;0.75;;;21.30;48.00;;;;;;6246119;22;86958;-74
2023/05/18 13:15:53;;;;;;;2.42;0.60;;;21.20;48.30;;;;;;6218042;22;87461;-74
2023/05/18 13:18:19;;;;;;;3.25;0.60;;;21.20;49.50;;;;;;6240978;22;88628;-74
2023/05/18 13:20:49;;;;;;;3.25;0.70;;;21.40;47.90;;;;;;6244842;22;88728;-75
2023/05/18 13:23:16;;;;;;;2.13;0.65;;;21.30;48.80;;;;;;6245067;22;87190;-75
2023/05/18 13:25:44;;;;;;;2.60;0.52;;;21.40;49.20;;;;;;6246196;22;87265;-75
2023/05/18 13:28:11;;;;;;;1.88;0.40;;;21.40;49.40;;;;;;6246109;22;87447;-74
2023/05/18 13:30:38;;;;;;;2.30;0.50;;;21.60;47.80;;;;;;6245614;22;87696;-74
2023/05/18 13:33:06;;;;;;;4.13;1.13;;;21.60;47.90;;;;;;6244998;22;87695;-75
2023/05/18 13:35:33;;;;;;;2.25;0.75;;;21.40;48.30;;;;;;6247610;22;86587;-74
2023/05/18 13:37:58;;;;;;;2.47;0.88;;;21.30;48.90;;;;;;6247102;22;88528;-75
2023/05/18 13:40:24;;;;;;;3.58;1.02;;;21.30;49.30;;;;;;6246242;22;87947;-74
2023/05/18 13:42:50;;;;;;;10.57;3.55;;;21.20;49.10;;;;;;6243809;22;88273;-74
2023/05/18 13:45:16;;;;;;;2.75;0.50;;;21.20;50.00;;;;;;6245446;22;87374;-75
2023/05/18 13:47:42;;;;;;;3.38;1.15;;;21.10;47.90;;;;;;6244918;22;87618;-75
2023/05/18 13:50:08;;;;;;;4.13;0.73;;;21.10;48.20;;;;;;6244520;22;87799;-75
2023/05/18 13:52:35;;;;;;;7.40;0.60;;;21.20;48.10;;;;;;6245436;22;87286;-74
2023/05/18 13:55:03;;;;;;;2.30;0.82;;;21.10;48.10;;;;;;6246167;22;87314;-74
2023/05/18 13:57:30;;;;;;;3.50;0.80;;;21.00;46.10;;;;;;6245490;22;87790;-74
2023/05/18 13:59:57;;;;;;;5.55;0.60;;;20.80;47.70;;;;;;6247178;22;87298;-74
2023/05/18 14:02:26;;;;;;;3.17;0.70;;;20.70;49.20;;;;;;6245685;22;87285;-74
2023/05/18 14:04:52;;;;;;;3.33;0.70;;;20.70;50.30;;;;;;6244249;22;87326;-74
2023/05/18 14:07:18;;;;;;;2.42;0.57;;;20.70;50.00;;;;;;6246009;22;89026;-75
2023/05/18 14:09:43;;;;;;;3.20;0.77;;;20.70;49.80;;;;;;6247645;22;88104;-75
2023/05/18 14:12:10;;;;;;;2.97;0.63;;;20.70;51.40;;;;;;6246936;22;87282;-75
2023/05/18 14:14:42;;;;;;;1.73;0.50;;;20.60;51.10;;;;;;6246508;22;87310;-73
2023/05/18 14:17:12;;;;;;;3.17;0.80;;;20.50;49.70;;;;;;6246873;22;88658;-74
2023/05/18 14:19:38;;;;;;;4.32;0.75;;;20.30;50.00;;;;;;6218382;22;90377;-74
2023/05/18 14:22:05;;;;;;;2.80;0.52;;;20.30;50.80;;;;;;6247128;22;87014;-74
2023/05/18 14:24:30;;;;;;;1.48;0.50;;;20.30;49.60;;;;;;6246858;22;86805;-74
2023/05/18 14:26:56;;;;;;;2.30;0.60;;;20.10;51.10;;;;;;6239016;22;88096;-74
2023/05/18 14:29:22;;;;;;;2.33;0.65;;;19.90;50.30;;;;;;6244870;22;87678;-74
2023/05/18 14:31:48;;;;;;;4.03;0.85;;;19.80;50.30;;;;;;6243945;22;88999;-74
2023/05/18 14:34:14;;;;;;;2.88;0.75;;;19.90;51.30;;;;;;6245338;22;87294;-73
2023/05/18 14:36:40;;;;;;;2.10;0.40;;;20.10;52.40;;;;;;6244609;22;87663;-74
2023/05/18 14:39:06;;;;;;;3.05;0.60;;;20.10;52.70;;;;;;6244687;22;87845;-74
2023/05/18 14:41:32;;;;;;;2.13;0.63;;;20.20;51.10;;;;;;6245532;22;87441;-74
2023/05/18 14:43:57;;;;;;;2.35;0.52;;;20.40;50.70;;;;;;6242962;22;87398;-74
2023/05/18 14:46:23;;;;;;;2.45;0.70;;;20.30;50.70;;;;;;6240933;22;88423;-75
2023/05/18 14:48:48;;;;;;;2.75;1.00;;;20.30;50.80;;;;;;6244043;22;87147;-74
2023/05/18 14:51:16;;;;;;;4.32;0.77;;;20.40;50.40;;;;;;6215228;22;87457;-74
2023/05/18 14:53:42;;;;;;;1.77;0.80;;;20.40;50.70;;;;;;6243751;22;87347;-74
2023/05/18 14:56:08;;;;;;;2.33;0.50;;;20.30;50.60;;;;;;6243733;22;89339;-74
2023/05/18 14:58:34;;;;;;;2.13;0.70;;;20.30;51.60;;;;;;6244269;22;89099;-74
2023/05/18 15:01:00;;;;;;;2.63;0.60;;;20.30;51.10;;;;;;6242369;22;87604;-74
2023/05/18 15:03:26;;;;;;;1.75;0.55;;;20.20;50.30;;;;;;6243639;22;87678;-74
2023/05/18 15:05:51;;;;;;;3.33;1.33;;;20.10;52.00;;;;;;6242342;22;87544;-74
2023/05/18 15:08:17;;;;;;;2.85;0.70;;;19.80;50.80;;;;;;6243409;22;87709;-73
2023/05/18 15:10:43;;;;;;;2.88;0.60;;;19.60;51.80;;;;;;6244164;22;87445;-74
2023/05/18 15:13:08;;;;;;;2.58;0.60;;;19.40;51.30;;;;;;6243590;22;86822;-74
2023/05/18 15:15:34;;;;;;;2.85;0.68;;;19.40;52.00;;;;;;6242919;22;88886;-74
2023/05/18 15:18:00;;;;;;;5.38;0.90;;;19.40;53.20;;;;;;6242884;22;87618;-74
2023/05/18 15:20:26;;;;;;;3.20;0.90;;;19.30;52.60;;;;;;6243019;22;88893;-74
2023/05/18 15:22:52;;;;;;;4.72;0.80;;;19.20;52.60;;;;;;6215857;22;87458;-74
2023/05/18 15:25:17;;;;;;;4.40;0.82;;;19.30;53.20;;;;;;6213172;22;88641;-74
2023/05/18 15:27:44;;;;;;;4.07;0.47;;;19.30;52.90;;;;;;6240260;22;87793;-74
2023/05/18 15:30:11;;;;;;;5.95;0.70;;;19.10;53.50;;;;;;6243427;22;87392;-75
2023/05/18 15:32:37;;;;;;;3.90;0.73;;;19.10;53.50;;;;;;6244685;22;87584;-75
2023/05/18 15:35:03;;;;;;;2.75;0.50;;;19.10;53.50;;;;;;6243379;22;88463;-73
2023/05/18 15:37:29;;;;;;;2.28;0.60;;;19.10;52.90;;;;;;6241801;22;86819;-73
2023/05/18 15:39:55;;;;;;;4.80;0.70;;;19.10;53.10;;;;;;6244759;22;87367;-73
2023/05/18 15:42:20;;;;;;;2.38;0.55;;;19.10;52.80;;;;;;6245445;22;86901;-73
2023/05/18 15:44:46;;;;;;;5.80;0.63;;;19.10;54.00;;;;;;6240414;22;89383;-72
2023/05/18 15:47:12;;;;;;;2.35;0.57;;;19.10;54.70;;;;;;6241952;22;89082;-72
2023/05/18 15:49:37;;;;;;;3.38;0.70;;;19.10;54.70;;;;;;6246192;22;87398;-73
2023/05/18 15:52:03;;;;;;;2.30;0.80;;;19.10;53.30;;;;;;6248651;22;86989;-71
2023/05/18 15:54:29;;;;;;;4.57;0.95;;;18.90;53.50;;;;;;6249175;22;88351;-72
2023/05/18 15:56:55;;;;;;;3.35;0.90;;;18.80;54.00;;;;;;6248826;22;87313;-72
2023/05/18 15:59:21;;;;;;;5.15;0.43;;;18.90;55.10;;;;;;6250324;22;87892;-73
2023/05/18 16:01:47;;;;;;;3.60;0.90;;;18.90;53.30;;;;;;6247758;22;87100;-73
2023/05/18 16:04:13;;;;;;;3.30;0.80;;;18.90;52.80;;;;;;6249251;22;87092;-72
2023/05/18 16:09:06;;;;;;;5.10;1.20;;;18.90;53.70;;;;;;6241146;22;88487;-78